createdAt,value
2018-10-21T00:01:07.963Z,23.43
2018-10-21T00:03:36.887Z,26.33
2018-10-21T00:06:05.823Z,22.90
2018-10-21T00:08:34.739Z,38.27
2018-10-21T00:11:03.688Z,26.43
2018-10-21T00:13:33.110Z,25.10
2018-10-21T00:16:02.042Z,31.77
2018-10-21T00:18:30.938Z,29.43
2018-10-21T00:20:59.949Z,41.47
2018-10-21T00:23:28.797Z,28.00
2018-10-21T00:25:57.687Z,24.50
2018-10-21T00:28:26.593Z,28.37
2018-10-21T00:30:55.530Z,23.57
2018-10-21T00:33:24.477Z,33.70
2018-10-21T00:35:53.338Z,26.27
2018-10-21T00:38:22.244Z,30.47
2018-10-21T00:40:51.243Z,22.10
2018-10-21T00:43:20.191Z,21.90
2018-10-21T00:45:49.098Z,29.30
2018-10-21T00:48:18.053Z,26.47
2018-10-21T00:50:47.023Z,30.50
2018-10-21T00:53:15.965Z,26.67
2018-10-21T00:55:44.947Z,30.80
2018-10-21T00:58:13.941Z,25.57
2018-10-21T01:00:43.811Z,23.93
2018-10-21T01:03:12.722Z,27.90
2018-10-21T01:05:41.648Z,24.57
2018-10-21T01:08:10.554Z,27.80
2018-10-21T01:10:39.668Z,26.53
2018-10-21T01:13:08.588Z,30.77
2018-10-21T01:15:37.523Z,28.50
2018-10-21T01:18:06.886Z,34.70
2018-10-21T01:20:35.891Z,25.63
2018-10-21T01:23:04.890Z,34.63
2018-10-21T01:25:33.866Z,37.47
2018-10-21T01:28:02.832Z,35.43
2018-10-21T01:30:31.689Z,34.40
2018-10-21T01:33:00.646Z,33.27
2018-10-21T01:35:29.683Z,34.37
2018-10-21T01:37:58.704Z,30.57
2018-10-21T01:40:31.918Z,33.60
2018-10-21T01:43:01.131Z,37.00
2018-10-21T01:45:30.039Z,28.80
2018-10-21T01:48:00.056Z,30.53
2018-10-21T01:50:28.992Z,32.00
2018-10-21T01:52:58.926Z,36.80
2018-10-21T01:55:27.964Z,28.20
2018-10-21T01:57:58.055Z,30.40
2018-10-21T02:00:27.646Z,28.60
2018-10-21T02:02:57.275Z,29.20
2018-10-21T02:05:26.362Z,30.63
2018-10-21T02:07:55.667Z,26.97
2018-10-21T02:10:24.596Z,29.93
2018-10-21T02:12:53.534Z,32.30
2018-10-21T02:15:22.567Z,26.30
2018-10-21T02:17:51.463Z,40.47
2018-10-21T02:20:21.059Z,32.23
2018-10-21T02:22:50.322Z,24.23
2018-10-21T02:25:19.302Z,31.30
2018-10-21T02:27:49.034Z,30.40
2018-10-21T02:30:19.349Z,42.63
2018-10-21T02:32:49.583Z,48.03
2018-10-21T02:35:18.980Z,51.97
2018-10-21T02:37:48.524Z,39.93
2018-10-21T02:41:40.933Z,40.20
2018-10-21T02:44:12.262Z,33.30
2018-10-21T02:46:41.680Z,45.77
2018-10-21T02:49:12.415Z,30.47
2018-10-21T02:51:41.342Z,35.37
2018-10-21T02:54:10.698Z,25.37
2018-10-21T02:56:39.642Z,29.03
2018-10-21T02:59:08.495Z,29.57
2018-10-21T03:01:37.419Z,32.03
2018-10-21T03:04:06.319Z,34.20
2018-10-21T03:06:35.228Z,30.83
2018-10-21T03:09:05.633Z,41.13
2018-10-21T03:11:34.590Z,41.00
2018-10-21T03:14:04.027Z,33.13
2018-10-21T03:16:32.914Z,32.03
2018-10-21T03:19:01.799Z,32.67
2018-10-21T03:21:30.837Z,38.97
2018-10-21T03:23:59.683Z,33.57
2018-10-21T03:26:28.551Z,37.93
2018-10-21T03:28:58.466Z,31.87
2018-10-21T03:31:27.399Z,31.73
2018-10-21T03:33:56.454Z,29.77
2018-10-21T03:36:25.222Z,39.97
2018-10-21T03:45:48.668Z,39.70
2018-10-21T03:48:17.518Z,37.33
2018-10-21T03:50:46.419Z,41.93
2018-10-21T03:53:15.298Z,52.53
2018-10-21T03:55:44.598Z,32.37
2018-10-21T03:58:13.644Z,38.80
2018-10-21T04:00:42.582Z,38.60
2018-10-21T04:03:11.490Z,33.80
2018-10-21T04:05:40.379Z,40.60
2018-10-21T04:08:09.294Z,77.10
2018-10-21T04:10:38.238Z,49.03
2018-10-21T04:13:07.200Z,40.07
2018-10-21T04:15:36.151Z,43.30
2018-10-21T04:18:05.104Z,42.40
2018-10-21T04:20:34.030Z,34.43
2018-10-21T04:23:03.670Z,44.13
2018-10-21T04:25:33.821Z,35.17
2018-10-21T04:28:03.583Z,36.10
2018-10-21T04:30:33.533Z,36.87
2018-10-21T04:33:23.764Z,37.90
2018-10-21T04:35:52.655Z,41.17
2018-10-21T04:39:45.427Z,43.03
2018-10-21T04:42:14.298Z,38.30
2018-10-21T04:44:43.202Z,38.33
2018-10-21T04:47:12.094Z,31.63
2018-10-21T04:49:40.971Z,34.63
2018-10-21T04:52:09.871Z,33.33
2018-10-21T04:54:38.798Z,31.80
2018-10-21T04:57:08.403Z,37.93
2018-10-21T04:59:38.531Z,41.20
2018-10-21T05:02:07.372Z,35.17
2018-10-21T05:04:36.245Z,43.77
2018-10-21T05:07:05.154Z,31.50
2018-10-21T05:09:34.087Z,33.53
2018-10-21T05:12:03.010Z,35.43
2018-10-21T05:14:32.854Z,38.83
2018-10-21T05:17:01.758Z,40.63
2018-10-21T05:19:30.847Z,40.07
2018-10-21T05:21:59.707Z,37.03
2018-10-21T05:24:28.572Z,42.03
2018-10-21T05:26:57.558Z,50.87
2018-10-21T05:29:26.469Z,35.90
2018-10-21T05:31:55.387Z,39.33
2018-10-21T05:34:24.226Z,36.23
2018-10-21T05:36:53.146Z,36.07
2018-10-21T05:39:22.092Z,32.00
2018-10-21T05:41:50.922Z,39.77
2018-10-21T05:44:19.746Z,35.30
2018-10-21T05:46:50.825Z,35.30
2018-10-21T05:49:19.578Z,41.43
2018-10-21T05:51:49.864Z,35.00
2018-10-21T05:54:19.535Z,38.90
2018-10-21T05:56:49.810Z,38.77
2018-10-21T05:59:18.954Z,39.07
2018-10-21T06:01:49.104Z,38.60
2018-10-21T06:04:18.638Z,38.67
2018-10-21T06:06:47.567Z,43.30
2018-10-21T06:09:16.422Z,45.23
2018-10-21T06:11:45.247Z,33.70
2018-10-21T06:14:14.119Z,39.13
2018-10-21T06:16:48.420Z,56.97
2018-10-21T06:19:20.732Z,39.63
2018-10-21T06:21:49.616Z,48.50
2018-10-21T06:24:18.459Z,44.40
2018-10-21T06:26:47.429Z,41.03
2018-10-21T06:31:25.059Z,41.13
2018-10-21T06:33:53.945Z,43.63
2018-10-21T06:36:23.215Z,33.40
2018-10-21T06:38:52.047Z,31.50
2018-10-21T06:41:21.738Z,38.77
2018-10-21T06:43:50.562Z,37.80
2018-10-21T06:46:19.479Z,35.70
2018-10-21T06:48:48.404Z,36.10
2018-10-21T06:51:17.394Z,32.47
2018-10-21T06:53:46.242Z,33.00
2018-10-21T06:56:15.236Z,41.73
2018-10-21T06:58:44.079Z,31.23
2018-10-21T07:01:12.930Z,31.53
2018-10-21T07:03:41.807Z,34.73
2018-10-21T07:06:16.082Z,29.43
2018-10-21T07:08:45.339Z,37.60
2018-10-21T07:11:14.382Z,37.20
2018-10-21T07:13:43.387Z,38.07
2018-10-21T07:16:12.540Z,38.27
2018-10-21T07:18:41.988Z,34.40
2018-10-21T07:21:10.992Z,38.13
2018-10-21T07:23:40.258Z,38.13
2018-10-21T07:26:09.195Z,48.97
2018-10-21T07:28:38.231Z,34.30
2018-10-21T07:31:07.109Z,36.60
2018-10-21T07:33:36.138Z,43.33
2018-10-21T07:36:05.499Z,30.10
2018-10-21T07:38:34.375Z,33.17
2018-10-21T07:41:03.236Z,35.57
2018-10-21T07:43:32.194Z,43.73
2018-10-21T07:46:01.190Z,33.93
2018-10-21T07:48:30.095Z,34.43
2018-10-21T07:50:59.098Z,42.40
2018-10-21T07:53:28.054Z,38.93
2018-10-21T07:55:56.907Z,39.93
2018-10-21T07:58:25.774Z,34.03
2018-10-21T08:00:54.636Z,34.00
2018-10-21T08:03:23.674Z,33.10
2018-10-21T08:06:31.244Z,38.57
2018-10-21T08:09:00.162Z,41.90
2018-10-21T08:11:29.054Z,38.60
2018-10-21T08:13:58.006Z,36.33
2018-10-21T08:16:26.938Z,41.33
2018-10-21T08:18:55.827Z,35.50
2018-10-21T08:21:25.088Z,36.93
2018-10-21T08:23:54.035Z,34.80
2018-10-21T08:26:22.962Z,39.07
2018-10-21T08:28:51.955Z,36.87
2018-10-21T08:31:20.875Z,32.83
2018-10-21T08:33:49.806Z,29.47
2018-10-21T08:36:18.706Z,35.27
2018-10-21T08:38:47.670Z,32.43
2018-10-21T08:41:16.579Z,39.50
2018-10-21T08:43:45.430Z,32.57
2018-10-21T08:46:14.439Z,37.03
2018-10-21T08:48:43.403Z,32.80
2018-10-21T08:51:12.454Z,34.23
2018-10-21T08:53:41.299Z,28.83
2018-10-21T08:56:10.175Z,27.67
2018-10-21T08:58:39.212Z,37.37
2018-10-21T09:01:08.182Z,25.17
2018-10-21T09:03:37.351Z,31.43
2018-10-21T09:06:06.259Z,27.87
2018-10-21T09:08:35.103Z,38.77
2018-10-21T09:11:04.153Z,20.87
2018-10-21T09:13:32.958Z,26.97
2018-10-21T09:16:01.829Z,20.27
2018-10-21T09:18:30.848Z,26.10
2018-10-21T09:20:59.706Z,22.63
2018-10-21T09:23:28.619Z,30.43
2018-10-21T09:25:57.462Z,26.33
2018-10-21T09:28:26.404Z,22.47
2018-10-21T09:30:55.291Z,26.73
2018-10-21T09:33:24.278Z,21.23
2018-10-21T09:35:53.194Z,24.67
2018-10-21T09:38:22.130Z,18.10
2018-10-21T09:40:51.010Z,25.23
2018-10-21T09:43:19.942Z,18.33
2018-10-21T09:45:48.814Z,20.30
2018-10-21T09:48:17.728Z,18.90
2018-10-21T09:50:46.646Z,15.13
2018-10-21T09:53:15.581Z,23.30
2018-10-21T09:55:44.458Z,13.90
2018-10-21T09:58:13.449Z,16.90
2018-10-21T10:00:47.718Z,13.77
2018-10-21T10:03:16.647Z,12.37
2018-10-21T10:05:45.559Z,20.20
2018-10-21T10:08:14.510Z,15.43
2018-10-21T10:10:43.474Z,18.03
2018-10-21T10:13:12.401Z,18.93
2018-10-21T10:15:41.281Z,12.50
2018-10-21T10:18:10.206Z,16.67
2018-10-21T10:20:39.066Z,18.50
2018-10-21T10:23:08.024Z,17.73
2018-10-21T10:25:36.965Z,24.83
2018-10-21T10:28:06.936Z,16.43
2018-10-21T10:30:35.917Z,16.00
2018-10-21T10:33:04.955Z,15.47
2018-10-21T10:35:33.917Z,15.90
2018-10-21T10:38:02.870Z,19.07
2018-10-21T10:40:31.737Z,14.60
2018-10-21T10:43:00.632Z,16.73
2018-10-21T10:45:29.538Z,20.03
2018-10-21T10:47:58.423Z,15.27
2018-10-21T10:50:27.314Z,13.27
2018-10-21T10:52:56.281Z,12.50
2018-10-21T10:55:29.335Z,15.33
2018-10-21T10:57:58.278Z,19.93
2018-10-21T11:00:27.166Z,15.33
2018-10-21T11:02:56.122Z,18.23
2018-10-21T11:05:25.027Z,13.50
2018-10-21T11:07:53.922Z,13.90
2018-10-21T11:10:22.870Z,14.43
2018-10-21T11:12:51.807Z,12.20
2018-10-21T11:15:20.630Z,13.60
2018-10-21T11:17:49.524Z,21.00
2018-10-21T11:20:18.423Z,21.77
2018-10-21T11:22:47.293Z,19.83
2018-10-21T11:25:16.230Z,12.13
2018-10-21T11:27:45.179Z,11.93
2018-10-21T11:30:14.064Z,14.30
2018-10-21T11:32:42.968Z,21.13
2018-10-21T11:35:11.823Z,20.50
2018-10-21T11:37:40.759Z,16.70
2018-10-21T11:40:09.639Z,18.40
2018-10-21T11:42:38.519Z,11.90
2018-10-21T11:45:07.661Z,13.80
2018-10-21T11:47:36.610Z,11.90
2018-10-21T11:50:06.291Z,20.03
2018-10-21T11:52:35.277Z,12.03
2018-10-21T11:55:04.169Z,12.33
2018-10-21T11:57:32.953Z,14.60
2018-10-21T12:00:01.880Z,16.27
2018-10-21T12:02:30.752Z,14.40
2018-10-21T12:04:59.652Z,21.00
2018-10-21T12:07:28.558Z,14.97
2018-10-21T12:09:57.557Z,11.67
2018-10-21T12:12:26.376Z,11.63
2018-10-21T12:14:55.279Z,11.80
2018-10-21T12:17:25.543Z,11.40
2018-10-21T12:19:54.438Z,13.67
2018-10-21T12:22:23.448Z,17.73
2018-10-21T12:24:52.343Z,10.60
2018-10-21T12:27:21.378Z,12.83
2018-10-21T12:29:50.347Z,13.77
2018-10-21T12:32:19.271Z,12.50
2018-10-21T12:34:48.150Z,13.33
2018-10-21T12:37:17.786Z,13.33
2018-10-21T12:39:46.646Z,12.50
2018-10-21T12:42:15.587Z,13.93
2018-10-21T12:44:44.559Z,11.70
2018-10-21T12:47:13.515Z,12.17
2018-10-21T12:49:42.332Z,12.73
2018-10-21T12:52:11.348Z,11.43
2018-10-21T12:54:40.359Z,16.20
2018-10-21T12:57:09.293Z,11.90
2018-10-21T12:59:38.210Z,12.50
2018-10-21T13:02:07.121Z,11.40
2018-10-21T13:04:36.050Z,9.47
2018-10-21T13:07:05.305Z,11.63
2018-10-21T13:09:34.190Z,13.23
2018-10-21T13:12:03.134Z,12.23
2018-10-21T13:14:32.046Z,13.70
2018-10-21T13:17:00.981Z,10.53
2018-10-21T13:26:24.420Z,10.60
2018-10-21T13:28:53.342Z,10.67
2018-10-21T13:31:22.217Z,13.30
2018-10-21T13:33:51.110Z,10.07
2018-10-21T13:36:20.009Z,17.50
2018-10-21T13:38:48.877Z,11.60
2018-10-21T13:41:17.683Z,12.00
2018-10-21T13:43:47.338Z,10.50
2018-10-21T13:46:16.319Z,14.00
2018-10-21T13:48:45.158Z,10.30
2018-10-21T13:51:15.070Z,15.60
2018-10-21T13:53:43.930Z,10.80
2018-10-21T13:56:12.841Z,14.93
2018-10-21T13:58:41.726Z,13.03
2018-10-21T14:01:10.792Z,21.73
2018-10-21T14:03:39.511Z,21.97
2018-10-21T14:06:08.395Z,17.53
2018-10-21T14:08:37.374Z,10.70
2018-10-21T14:11:06.288Z,11.00
2018-10-21T14:13:35.178Z,12.80
2018-10-21T14:16:04.116Z,15.77
2018-10-21T14:18:32.916Z,11.80
2018-10-21T14:21:02.332Z,10.60
2018-10-21T14:23:31.539Z,9.10
2018-10-21T14:26:00.458Z,15.00
2018-10-21T14:28:29.406Z,16.07
2018-10-21T14:32:01.617Z,10.90
2018-10-21T14:34:30.509Z,15.00
2018-10-21T14:36:59.556Z,12.43
2018-10-21T14:39:28.676Z,11.13
2018-10-21T14:41:57.660Z,12.40
2018-10-21T14:44:26.452Z,13.53
2018-10-21T14:46:55.349Z,15.80
2018-10-21T14:49:24.270Z,16.53
2018-10-21T14:51:53.253Z,13.87
2018-10-21T14:54:22.139Z,12.57
2018-10-21T14:56:51.081Z,13.97
2018-10-21T14:59:19.919Z,12.20
2018-10-21T15:01:48.790Z,10.73
2018-10-21T15:04:17.789Z,17.93
2018-10-21T15:06:46.728Z,13.77
2018-10-21T15:09:15.690Z,17.20
2018-10-21T15:11:44.547Z,19.50
2018-10-21T15:14:13.519Z,14.03
2018-10-21T15:16:42.339Z,16.60
2018-10-21T15:19:11.227Z,15.77
2018-10-21T15:21:40.156Z,17.73
2018-10-21T15:24:08.986Z,19.23
2018-10-21T15:26:38.050Z,22.87
2018-10-21T15:29:07.283Z,16.80
2018-10-21T15:31:36.194Z,33.23
2018-10-21T15:34:05.153Z,13.50
2018-10-21T15:36:33.943Z,13.30
2018-10-21T15:39:02.850Z,19.13
2018-10-21T15:41:31.744Z,17.43
2018-10-21T15:44:00.656Z,15.83
2018-10-21T15:46:29.458Z,17.00
2018-10-21T15:48:58.517Z,16.63
2018-10-21T15:51:27.394Z,15.97
2018-10-21T15:53:56.295Z,16.30
2018-10-21T15:56:25.187Z,16.17
2018-10-21T15:58:54.013Z,15.87
2018-10-21T16:01:22.863Z,21.30
2018-10-21T16:03:51.755Z,16.20
2018-10-21T16:06:20.656Z,19.20
2018-10-21T16:08:49.510Z,15.10
2018-10-21T16:11:18.432Z,15.20
2018-10-21T16:13:47.361Z,39.97
2018-10-21T16:16:18.142Z,29.33
2018-10-21T16:18:49.766Z,251.63
2018-10-21T16:21:18.682Z,129.57
2018-10-21T16:23:47.583Z,21.40
2018-10-21T16:26:16.492Z,84.43
2018-10-21T16:28:45.360Z,55.97
2018-10-21T16:31:14.315Z,33.97
2018-10-21T16:33:43.220Z,19.37
2018-10-21T16:36:12.130Z,25.00
2018-10-21T16:38:41.034Z,19.40
2018-10-21T16:41:09.870Z,19.90
2018-10-21T16:43:38.815Z,18.53
2018-10-21T16:46:07.719Z,21.97
2018-10-21T16:48:36.571Z,15.73
2018-10-21T16:51:06.283Z,27.00
2018-10-21T16:53:35.235Z,23.23
2018-10-21T16:56:04.157Z,25.80
2018-10-21T16:58:33.078Z,24.77
2018-10-21T17:01:02.023Z,30.37
2018-10-21T17:03:31.909Z,34.57
2018-10-21T17:06:01.423Z,29.00
2018-10-21T17:08:30.362Z,28.73
2018-10-21T17:10:59.369Z,34.03
2018-10-21T17:13:28.279Z,36.40
2018-10-21T17:15:57.139Z,31.30
2018-10-21T17:18:26.178Z,29.77
2018-10-21T17:20:55.154Z,31.27
2018-10-21T17:23:24.114Z,27.97
2018-10-21T17:25:53.058Z,33.50
2018-10-21T17:28:22.059Z,30.97
2018-10-21T17:30:50.997Z,27.73
2018-10-21T17:33:19.930Z,27.83
2018-10-21T17:35:48.848Z,28.57
2018-10-21T17:38:17.922Z,31.03
2018-10-21T17:40:46.814Z,37.60
2018-10-21T17:43:15.815Z,47.17
2018-10-21T17:45:44.662Z,44.33
2018-10-21T17:48:13.560Z,32.90
2018-10-21T17:50:42.383Z,37.37
2018-10-21T17:53:12.360Z,35.60
2018-10-21T17:55:41.225Z,32.40
2018-10-21T17:58:10.221Z,29.80
2018-10-21T18:00:39.886Z,43.63
2018-10-21T18:03:10.902Z,32.33
2018-10-21T18:05:39.886Z,35.50
2018-10-21T18:08:08.869Z,36.83
2018-10-21T18:10:37.952Z,42.27
2018-10-21T18:13:06.830Z,406.97
2018-10-21T18:15:35.914Z,460.27
2018-10-21T18:18:05.030Z,196.67
2018-10-21T18:20:34.027Z,199.63
2018-10-21T18:23:02.949Z,94.67
2018-10-21T18:25:31.964Z,92.37
2018-10-21T18:28:00.976Z,85.37
2018-10-21T18:30:29.942Z,61.80
2018-10-21T18:32:58.950Z,47.73
2018-10-21T18:35:27.779Z,26.07
2018-10-21T18:37:56.786Z,43.97
2018-10-21T18:40:25.926Z,41.43
2018-10-21T18:42:54.768Z,31.57
2018-10-21T18:45:23.640Z,24.63
2018-10-21T18:47:52.542Z,32.93
2018-10-21T18:50:21.533Z,32.60
2018-10-21T18:52:50.602Z,23.57
2018-10-21T18:55:19.794Z,29.83
2018-10-21T18:57:48.690Z,21.03
2018-10-21T19:00:18.659Z,21.53
2018-10-21T19:02:47.626Z,22.50
2018-10-21T19:05:16.675Z,28.97
2018-10-21T19:07:45.614Z,20.37
2018-10-21T19:10:15.717Z,29.17
2018-10-21T19:12:44.630Z,37.03
2018-10-21T19:15:14.070Z,25.03
2018-10-21T19:17:43.033Z,25.60
2018-10-21T19:20:13.698Z,24.77
2018-10-21T19:22:42.895Z,35.53
2018-10-21T19:25:18.467Z,40.47
2018-10-21T19:27:47.520Z,39.43
2018-10-21T19:30:16.526Z,37.57
2018-10-21T19:32:45.612Z,26.60
2018-10-21T19:35:15.516Z,28.53
2018-10-21T19:37:44.611Z,30.60
2018-10-21T19:40:14.820Z,33.50
2018-10-21T19:42:44.648Z,38.47
2018-10-21T19:45:14.248Z,22.57
2018-10-21T19:47:43.281Z,25.10
2018-10-21T19:50:13.424Z,36.43
2018-10-21T19:52:43.067Z,24.90
2018-10-21T19:55:12.372Z,26.50
2018-10-21T19:57:41.194Z,30.03
2018-10-21T20:00:13.731Z,21.63
2018-10-21T20:02:42.851Z,26.03
2018-10-21T20:05:11.741Z,26.67
2018-10-21T20:07:40.791Z,32.57
2018-10-21T20:10:11.738Z,29.77
2018-10-21T20:12:40.594Z,38.83
2018-10-21T20:15:10.591Z,30.20
2018-10-21T20:17:39.879Z,21.67
2018-10-21T20:20:09.691Z,24.03
2018-10-21T20:22:38.591Z,26.90
2018-10-21T20:25:08.445Z,27.13
2018-10-21T20:27:37.263Z,35.70
2018-10-21T20:30:08.102Z,26.67
2018-10-21T20:32:37.114Z,22.60
2018-10-21T20:35:07.696Z,23.67
2018-10-21T20:37:36.638Z,34.20
2018-10-21T20:40:06.642Z,30.27
2018-10-21T20:42:35.519Z,23.33
2018-10-21T20:45:04.615Z,20.80
2018-10-21T20:47:33.527Z,21.47
2018-10-21T20:50:02.501Z,19.20
2018-10-21T20:52:31.452Z,23.57
2018-10-21T20:55:00.396Z,19.40
2018-10-21T20:57:29.298Z,23.20
2018-10-21T20:59:58.243Z,21.13
2018-10-21T21:02:27.150Z,26.20
2018-10-21T21:04:56.072Z,25.43
2018-10-21T21:07:24.958Z,18.80
2018-10-21T21:09:53.853Z,22.07
2018-10-21T21:12:22.738Z,21.60
2018-10-21T21:14:51.550Z,20.57
2018-10-21T21:17:20.499Z,20.83
2018-10-21T21:19:49.374Z,21.70
2018-10-21T21:22:18.400Z,19.83
2018-10-21T21:24:47.255Z,20.83
2018-10-21T21:27:16.225Z,30.63
2018-10-21T21:29:45.127Z,23.17
2018-10-21T21:32:14.074Z,19.67
2018-10-21T21:34:42.925Z,21.70
2018-10-21T21:37:11.811Z,25.13
2018-10-21T21:39:40.738Z,16.40
2018-10-21T21:42:09.613Z,20.93
2018-10-21T21:44:38.482Z,24.80
2018-10-21T21:47:07.401Z,18.33
2018-10-21T21:49:36.278Z,18.03
2018-10-21T21:52:05.212Z,21.20
2018-10-21T21:54:34.148Z,21.20
2018-10-21T21:57:03.059Z,19.00
2018-10-21T21:59:32.028Z,22.07
2018-10-21T22:02:00.951Z,17.47
2018-10-21T22:04:29.891Z,18.67
2018-10-21T22:06:58.786Z,14.33
2018-10-21T22:09:27.679Z,26.93
2018-10-21T22:11:56.605Z,16.07
2018-10-21T22:14:25.460Z,20.17
2018-10-21T22:16:54.362Z,15.53
2018-10-21T22:19:23.239Z,15.03
2018-10-21T22:21:52.126Z,14.93
2018-10-21T22:24:21.014Z,20.93
2018-10-21T22:26:49.963Z,20.83
2018-10-21T22:29:19.825Z,19.53
2018-10-21T22:31:48.755Z,21.03
2018-10-21T22:34:17.731Z,21.70
2018-10-21T22:36:46.622Z,17.40
2018-10-21T22:39:16.001Z,25.90
2018-10-21T22:41:45.076Z,21.97
2018-10-21T22:44:14.642Z,19.60
2018-10-21T22:46:43.527Z,21.10
2018-10-21T22:49:12.415Z,36.40
2018-10-21T22:51:41.339Z,21.57
2018-10-21T22:54:10.383Z,24.53
2018-10-21T22:56:39.140Z,25.67
2018-10-21T22:59:08.078Z,24.27
2018-10-21T23:01:36.945Z,17.30
2018-10-21T23:04:06.046Z,20.20
2018-10-21T23:06:34.955Z,16.07
2018-10-21T23:09:05.170Z,27.53
2018-10-21T23:11:34.078Z,22.97
2018-10-21T23:14:02.985Z,28.37
2018-10-21T23:16:32.719Z,20.37
2018-10-21T23:19:19.103Z,19.33
2018-10-21T23:21:48.031Z,17.77
2018-10-21T23:24:16.982Z,16.13
2018-10-21T23:26:45.794Z,17.67
2018-10-21T23:29:14.759Z,16.83
2018-10-21T23:31:43.694Z,19.63
2018-10-21T23:34:12.701Z,17.10
2018-10-21T23:36:41.558Z,18.93
2018-10-21T23:39:10.498Z,32.73
2018-10-21T23:41:39.361Z,22.03
2018-10-21T23:44:08.269Z,17.13
2018-10-21T23:46:37.143Z,20.63
2018-10-21T23:49:07.071Z,17.53
2018-10-21T23:51:36.020Z,24.00
2018-10-21T23:54:05.093Z,16.70
2018-10-21T23:56:34.062Z,17.43
2018-10-21T23:59:03.006Z,17.50
